Terminal Aerodrome Forecast
Issued by NWS Chicago, IL

Home | Current Version | Previous Version | Text Only | Print | Product List | Glossary On
Versions: 1 2 3 4 5 6 7 8 9 10 11 12 13 14 15 16 17 18 19 20 21 22 23 24 25 26 27
000
FTUS43 KLOT 050117 AAA
TAFRFD
TAF AMD
KRFD 050117Z 0501/0524 VRB03KT 2SM BR SCT008 BKN015 OVC035
     FM050300 24008KT 1SM BR OVC008
     FM050900 24006KT 3/4SM BR BKN008
     FM051100 22005KT 1/4SM FZFG VV004
     FM051600 18006KT 3/4SM BR BKN008
     FM051900 18010G18KT 4SM BR BKN008
     FM052200 17010G18KT P6SM BKN012=

USA.gov is the U.S. government's official web portal to all federal, state and local government web resources and services.